Terminal Aerodrome Forecast
Issued by NWS

Home | Current Version | Previous Version | Text Only | Print | Product List | Glossary On
Versions: 1 2 3 4 5 6 7 8 9 10 11 12 13 14 15 16 17 18 19 20 21 22 23 24
000
FTUS43 KLOT 221735
TAFMDW
TAF
KMDW 221735Z 2218/2318 18012G19KT P6SM VCSH OVC022
     FM222100 33013G21KT 4SM -DZ BR VCSH OVC008
      TEMPO 2221/2223 2SM -DZRA BR OVC006
     FM222300 36012G19KT 4SM -RA BR OVC007
     FM230100 36009KT 5SM -RA BR OVC009
     FM230600 33007KT 6SM BR SCT015 BKN080
     FM231400 28006KT P6SM BKN150=

USA.gov is the U.S. government's official web portal to all federal, state and local government web resources and services.